createdAt,value
2018-09-21T00:00:41.721Z,15.40
2018-09-21T00:03:12.661Z,15.50
2018-09-21T00:05:42.725Z,15.50
2018-09-21T00:08:12.851Z,15.40
2018-09-21T00:10:42.926Z,15.40
2018-09-21T00:13:13.027Z,15.40
2018-09-21T00:15:43.176Z,15.40
2018-09-21T00:20:42.672Z,15.40
2018-09-21T00:23:13.272Z,15.30
2018-09-21T00:25:43.433Z,15.30
2018-09-21T00:28:13.581Z,15.30
2018-09-21T00:30:43.731Z,15.30
2018-09-21T00:33:13.864Z,15.30
2018-09-21T00:35:43.937Z,15.30
2018-09-21T00:38:14.042Z,15.30
2018-09-21T00:43:13.907Z,15.30
2018-09-21T00:45:44.039Z,15.30
2018-09-21T00:48:14.153Z,15.20
2018-09-21T00:50:44.251Z,15.20
2018-09-21T00:53:14.415Z,15.30
2018-09-21T00:55:44.471Z,15.30
2018-09-21T00:58:14.601Z,15.30
2018-09-21T01:00:44.659Z,15.30
2018-09-21T01:03:14.781Z,15.30
2018-09-21T01:05:44.945Z,15.20
2018-09-21T01:08:15.144Z,15.10
2018-09-21T01:10:45.310Z,15.10
2018-09-21T01:13:15.484Z,15.00
2018-09-21T01:15:45.657Z,15.00
2018-09-21T01:18:15.819Z,15.00
2018-09-21T01:20:45.933Z,15.00
2018-09-21T01:23:16.149Z,14.90
2018-09-21T01:25:46.276Z,15.00
2018-09-21T01:28:16.802Z,15.00
2018-09-21T01:30:46.896Z,14.90
2018-09-21T01:33:17.049Z,15.00
2018-09-21T01:35:47.255Z,15.00
2018-09-21T01:38:17.405Z,14.90
2018-09-21T01:40:47.543Z,14.90
2018-09-21T01:43:17.732Z,14.90
2018-09-21T01:45:47.867Z,14.90
2018-09-21T01:48:17.975Z,14.90
2018-09-21T01:50:48.146Z,14.80
2018-09-21T01:53:18.257Z,14.70
2018-09-21T01:55:48.369Z,14.70
2018-09-21T01:58:18.559Z,14.70
2018-09-21T02:00:48.677Z,14.60
2018-09-21T02:03:18.837Z,14.60
2018-09-21T02:05:48.969Z,14.60
2018-09-21T02:08:19.120Z,14.50
2018-09-21T02:10:49.217Z,14.50
2018-09-21T02:13:19.390Z,14.50
2018-09-21T02:15:49.643Z,14.50
2018-09-21T02:18:19.800Z,14.40
2018-09-21T02:20:49.940Z,14.40
2018-09-21T02:23:20.070Z,14.40
2018-09-21T02:28:19.695Z,14.40
2018-09-21T02:30:49.854Z,14.50
2018-09-21T02:33:19.987Z,14.50
2018-09-21T02:35:50.087Z,14.40
2018-09-21T02:38:20.232Z,14.30
2018-09-21T02:40:50.367Z,14.40
2018-09-21T02:43:20.544Z,14.40
2018-09-21T02:45:50.823Z,14.40
2018-09-21T02:48:21.018Z,14.30
2018-09-21T02:50:51.075Z,14.30
2018-09-21T02:53:21.257Z,14.30
2018-09-21T02:55:51.346Z,14.30
2018-09-21T02:58:21.728Z,14.20
2018-09-21T03:00:52.048Z,14.20
2018-09-21T03:03:22.053Z,14.10
2018-09-21T03:05:52.280Z,14.10
2018-09-21T03:08:22.447Z,14.10
2018-09-21T03:10:52.528Z,14.00
2018-09-21T03:13:22.658Z,14.00
2018-09-21T03:15:52.716Z,14.10
2018-09-21T03:18:22.828Z,14.10
2018-09-21T03:20:52.960Z,14.10
2018-09-21T03:23:23.089Z,14.10
2018-09-21T03:25:53.152Z,14.10
2018-09-21T03:28:23.460Z,14.10
2018-09-21T03:30:53.625Z,14.10
2018-09-21T03:33:23.769Z,14.10
2018-09-21T03:35:53.940Z,14.10
2018-09-21T03:38:24.087Z,14.10
2018-09-21T03:40:54.238Z,14.00
2018-09-21T03:43:24.499Z,14.00
2018-09-21T03:45:54.547Z,13.90
2018-09-21T03:48:24.704Z,13.90
2018-09-21T03:50:54.787Z,13.80
2018-09-21T03:53:24.904Z,13.80
2018-09-21T03:55:55.009Z,13.70
2018-09-21T03:58:25.249Z,13.70
2018-09-21T04:00:55.470Z,13.70
2018-09-21T04:03:25.512Z,13.80
2018-09-21T04:05:55.625Z,13.80
2018-09-21T04:08:26.024Z,13.80
2018-09-21T04:10:56.170Z,13.80
2018-09-21T04:13:26.285Z,13.80
2018-09-21T04:15:56.810Z,13.70
2018-09-21T04:18:26.893Z,13.70
2018-09-21T04:20:56.997Z,13.70
2018-09-21T04:25:56.568Z,13.70
2018-09-21T04:28:26.773Z,13.60
2018-09-21T04:30:56.948Z,13.60
2018-09-21T04:33:27.062Z,13.60
2018-09-21T04:35:57.254Z,13.50
2018-09-21T04:38:27.351Z,13.50
2018-09-21T04:40:57.472Z,13.50
2018-09-21T04:43:27.632Z,13.60
2018-09-21T04:45:57.757Z,13.60
2018-09-21T04:48:28.286Z,13.70
2018-09-21T04:50:58.437Z,13.70
2018-09-21T04:55:57.864Z,13.70
2018-09-21T04:58:28.009Z,13.70
2018-09-21T05:00:58.164Z,13.70
2018-09-21T05:03:28.414Z,13.70
2018-09-21T05:08:27.924Z,13.80
2018-09-21T05:10:58.211Z,13.90
2018-09-21T05:13:28.407Z,13.90
2018-09-21T05:15:58.525Z,13.90
2018-09-21T05:18:28.689Z,13.90
2018-09-21T05:20:58.874Z,14.00
2018-09-21T05:23:28.946Z,14.00
2018-09-21T05:25:59.104Z,14.10
2018-09-21T05:28:29.165Z,14.10
2018-09-21T05:30:59.420Z,14.20
2018-09-21T05:33:29.506Z,14.20
2018-09-21T05:35:59.709Z,14.30
2018-09-21T05:38:29.871Z,14.40
2018-09-21T05:41:00.014Z,14.40
2018-09-21T05:43:30.170Z,14.50
2018-09-21T05:46:00.326Z,14.60
2018-09-21T05:50:59.880Z,14.70
2018-09-21T05:53:30.357Z,14.80
2018-09-21T05:56:00.550Z,14.90
2018-09-21T05:58:30.880Z,15.00
2018-09-21T06:01:00.949Z,15.00
2018-09-21T06:08:29.982Z,15.30
2018-09-21T06:11:00.085Z,15.40
2018-09-21T06:13:30.273Z,15.50
2018-09-21T06:16:00.376Z,15.60
2018-09-21T06:18:30.549Z,15.80
2018-09-21T06:21:00.680Z,15.80
2018-09-21T06:23:30.788Z,15.90
2018-09-21T06:26:00.882Z,16.00
2018-09-21T06:28:31.094Z,16.10
2018-09-21T06:31:01.227Z,16.20
2018-09-21T06:33:31.444Z,16.40
2018-09-21T06:36:01.606Z,16.50
2018-09-21T06:38:31.832Z,16.70
2018-09-21T06:41:01.984Z,16.80
2018-09-21T06:43:32.155Z,17.00
2018-09-21T06:48:31.601Z,17.30
2018-09-21T06:51:01.732Z,17.50
2018-09-21T06:53:31.859Z,17.70
2018-09-21T06:56:01.973Z,17.80
2018-09-21T06:58:32.068Z,18.00
2018-09-21T07:01:02.205Z,18.10
2018-09-21T07:03:32.378Z,18.20
2018-09-21T07:08:32.002Z,18.40
2018-09-21T07:18:31.289Z,19.30
2018-09-21T07:21:01.724Z,19.40
2018-09-21T07:23:32.143Z,19.70
2018-09-21T07:26:09.023Z,19.80
2018-09-21T07:28:39.156Z,19.90
2018-09-21T07:31:09.312Z,19.90
2018-09-21T07:33:39.772Z,20.00
2018-09-21T07:36:09.928Z,20.10
2018-09-21T07:38:40.330Z,20.30
2018-09-21T07:41:10.410Z,20.50
2018-09-21T07:43:40.532Z,20.80
2018-09-21T07:46:10.668Z,20.90
2018-09-21T07:48:40.777Z,21.20
2018-09-21T07:53:40.271Z,21.50
2018-09-21T07:56:10.339Z,21.60
2018-09-21T07:58:40.432Z,21.60
2018-09-21T08:01:10.486Z,21.70
2018-09-21T08:03:41.799Z,21.90
2018-09-21T08:08:41.328Z,22.40
2018-09-21T08:11:11.423Z,22.40
2018-09-21T08:13:41.543Z,22.60
2018-09-21T08:16:11.944Z,22.60
2018-09-21T08:18:42.081Z,22.70
2018-09-21T08:28:40.488Z,23.20
2018-09-21T08:31:11.197Z,23.30
2018-09-21T08:33:41.273Z,23.40
2018-09-21T08:36:11.363Z,23.60
2018-09-21T08:38:41.440Z,23.80
2018-09-21T08:41:11.589Z,23.90
2018-09-21T08:43:41.936Z,24.00
2018-09-21T08:46:12.060Z,24.10
2018-09-21T08:48:42.358Z,24.30
2018-09-21T08:51:12.481Z,24.30
2018-09-21T08:53:42.663Z,24.40
2018-09-21T08:56:12.800Z,24.40
2018-09-21T08:58:42.879Z,24.50
2018-09-21T09:01:13.025Z,24.70
2018-09-21T09:03:43.144Z,24.70
2018-09-21T09:06:13.264Z,24.80
2018-09-21T09:08:43.748Z,25.00
2018-09-21T09:11:13.839Z,25.10
2018-09-21T09:13:43.893Z,25.20
2018-09-21T09:16:14.347Z,25.50
2018-09-21T09:18:44.425Z,25.70
2018-09-21T09:21:14.571Z,25.70
2018-09-21T09:26:14.277Z,26.10
2018-09-21T09:28:44.676Z,26.00
2018-09-21T09:31:15.104Z,26.20
2018-09-21T09:33:45.507Z,26.10
2018-09-21T09:36:15.921Z,26.00
2018-09-21T09:38:46.642Z,26.20
2018-09-21T09:43:46.553Z,26.60
2018-09-21T09:46:17.095Z,26.40
2018-09-21T09:48:47.542Z,26.50
2018-09-21T09:51:17.927Z,26.70
2018-09-21T09:53:48.268Z,26.90
2018-09-21T09:56:18.799Z,26.60
2018-09-21T09:58:49.242Z,26.50
2018-09-21T10:01:19.633Z,26.70
2018-09-21T10:03:50.254Z,26.80
2018-09-21T10:06:20.716Z,26.60
2018-09-21T10:11:20.675Z,26.60
2018-09-21T10:13:51.152Z,26.80
2018-09-21T10:16:21.952Z,26.90
2018-09-21T10:18:52.161Z,27.10
2018-09-21T10:21:22.423Z,27.20
2018-09-21T10:23:52.862Z,27.20
2018-09-21T10:26:22.957Z,27.40
2018-09-21T10:28:53.476Z,27.70
2018-09-21T10:31:23.428Z,27.40
2018-09-21T10:33:53.618Z,27.50
2018-09-21T10:36:24.104Z,27.60
2018-09-21T10:38:54.493Z,27.90
2018-09-21T10:41:24.428Z,27.90
2018-09-21T10:43:54.725Z,27.80
2018-09-21T10:46:25.201Z,27.70
2018-09-21T10:48:55.247Z,27.80
2018-09-21T10:51:25.346Z,27.80
2018-09-21T10:53:55.720Z,27.60
2018-09-21T10:56:26.096Z,27.80
2018-09-21T10:58:56.445Z,28.20
2018-09-21T11:01:26.892Z,28.40
2018-09-21T11:03:57.288Z,28.50
2018-09-21T11:06:27.694Z,28.50
2018-09-21T11:08:58.062Z,28.60
2018-09-21T11:11:28.621Z,28.50
2018-09-21T11:16:28.533Z,28.90
2018-09-21T11:18:58.847Z,29.00
2018-09-21T11:21:29.012Z,28.90
2018-09-21T11:23:59.377Z,28.90
2018-09-21T11:26:29.881Z,29.00
2018-09-21T11:29:00.229Z,28.90
2018-09-21T11:31:30.343Z,28.90
2018-09-21T11:34:00.654Z,29.10
2018-09-21T11:36:30.770Z,29.10
2018-09-21T11:39:00.967Z,29.20
2018-09-21T11:44:00.518Z,29.30
2018-09-21T11:46:30.645Z,29.10
2018-09-21T11:49:00.753Z,29.10
2018-09-21T11:51:31.176Z,29.40
2018-09-21T11:54:01.368Z,29.60
2018-09-21T11:59:01.020Z,29.40
2018-09-21T12:01:31.056Z,29.10
2018-09-21T12:04:01.625Z,29.00
2018-09-21T12:09:01.681Z,28.80
2018-09-21T12:11:31.951Z,29.50
2018-09-21T12:14:02.049Z,30.40
2018-09-21T12:16:32.752Z,30.50
2018-09-21T12:21:32.779Z,29.10
2018-09-21T12:26:33.137Z,28.70
2018-09-21T12:29:03.549Z,29.30
2018-09-21T12:34:03.405Z,30.30
2018-09-21T12:36:33.836Z,30.50
2018-09-21T12:41:34.031Z,29.20
2018-09-21T12:44:04.397Z,28.70
2018-09-21T12:46:34.871Z,28.80
2018-09-21T12:49:05.993Z,28.70
2018-09-21T12:51:36.679Z,28.70
2018-09-21T12:54:07.068Z,28.80
2018-09-21T12:56:37.563Z,28.60
2018-09-21T12:59:08.048Z,28.10
2018-09-21T13:04:08.014Z,28.30
2018-09-21T13:06:38.290Z,28.00
2018-09-21T13:14:08.248Z,27.80
2018-09-21T13:19:08.316Z,28.10
2018-09-21T13:21:38.585Z,28.00
2018-09-21T13:24:09.074Z,28.10
2018-09-21T13:26:39.422Z,27.90
2018-09-21T13:29:09.845Z,27.80
2018-09-21T13:31:40.488Z,27.80
2018-09-21T13:34:10.951Z,27.80
2018-09-21T13:39:12.643Z,28.00
2018-09-21T13:41:43.020Z,27.90
2018-09-21T13:44:13.463Z,28.00
2018-09-21T13:46:43.878Z,28.10
2018-09-21T13:49:14.324Z,28.00
2018-09-21T13:51:44.738Z,27.80
2018-09-21T13:56:44.752Z,27.90
2018-09-21T13:59:15.247Z,27.90
2018-09-21T14:01:45.586Z,28.10
2018-09-21T14:04:16.115Z,28.30
2018-09-21T14:06:46.439Z,28.30
2018-09-21T14:09:16.943Z,28.30
2018-09-21T14:11:47.308Z,28.20
2018-09-21T14:14:17.767Z,28.10
2018-09-21T14:19:17.796Z,28.20
2018-09-21T14:21:48.174Z,28.20
2018-09-21T14:24:18.474Z,28.50
2018-09-21T14:26:48.825Z,29.20
2018-09-21T14:29:19.215Z,29.90
2018-09-21T14:31:49.509Z,30.50
2018-09-21T14:34:19.900Z,30.50
2018-09-21T14:36:50.250Z,30.80
2018-09-21T14:39:20.692Z,30.60
2018-09-21T14:41:51.219Z,30.40
2018-09-21T14:44:21.584Z,30.20
2018-09-21T14:46:51.955Z,29.50
2018-09-21T14:49:22.385Z,29.10
2018-09-21T14:51:52.658Z,29.10
2018-09-21T14:54:23.109Z,28.90
2018-09-21T14:56:53.628Z,28.40
2018-09-21T14:59:23.979Z,28.10
2018-09-21T15:01:54.424Z,28.00
2018-09-21T15:06:54.520Z,28.00
2018-09-21T15:09:24.894Z,28.80
2018-09-21T15:14:25.070Z,29.50
2018-09-21T15:16:55.445Z,29.70
2018-09-21T15:21:55.582Z,29.90
2018-09-21T15:24:26.021Z,30.10
2018-09-21T15:26:56.428Z,30.10
2018-09-21T15:29:27.171Z,29.60
2018-09-21T15:31:57.570Z,29.50
2018-09-21T15:34:28.144Z,29.60
2018-09-21T15:36:58.450Z,29.30
2018-09-21T15:41:58.556Z,29.20
2018-09-21T15:44:29.052Z,29.30
2018-09-21T15:46:59.684Z,29.40
2018-09-21T15:49:30.184Z,29.20
2018-09-21T15:54:30.372Z,28.70
2018-09-21T15:57:00.876Z,28.60
2018-09-21T15:59:31.492Z,28.50
2018-09-21T16:02:01.751Z,28.50
2018-09-21T16:04:32.055Z,28.30
2018-09-21T16:07:02.496Z,27.90
2018-09-21T16:09:32.801Z,27.60
2018-09-21T16:12:03.326Z,27.40
2018-09-21T16:14:33.655Z,26.90
2018-09-21T16:17:03.981Z,26.70
2018-09-21T16:19:34.144Z,26.60
2018-09-21T16:22:04.813Z,26.40
2018-09-21T16:24:35.152Z,26.30
2018-09-21T16:27:05.603Z,26.10
2018-09-21T16:29:35.968Z,25.90
2018-09-21T16:32:06.251Z,25.80
2018-09-21T16:34:36.613Z,25.70
2018-09-21T16:37:07.044Z,25.50
2018-09-21T16:39:37.560Z,25.30
2018-09-21T16:42:07.944Z,25.00
2018-09-21T16:44:38.279Z,24.80
2018-09-21T16:47:08.741Z,24.50
2018-09-21T16:49:39.213Z,24.40
2018-09-21T16:52:09.389Z,24.40
2018-09-21T16:54:39.828Z,24.60
2018-09-21T16:57:10.143Z,24.60
2018-09-21T16:59:40.486Z,24.70
2018-09-21T17:04:40.531Z,24.60
2018-09-21T17:07:14.757Z,24.60
2018-09-21T17:09:46.517Z,24.60
2018-09-21T17:12:16.900Z,24.50
2018-09-21T17:14:47.439Z,24.40
2018-09-21T17:17:17.881Z,24.30
2018-09-21T17:19:48.344Z,24.30
2018-09-21T17:22:18.800Z,24.30
2018-09-21T17:24:49.280Z,24.20
2018-09-21T17:27:19.399Z,24.20
2018-09-21T17:29:49.827Z,24.10
2018-09-21T17:32:19.896Z,24.00
2018-09-21T17:34:50.399Z,23.80
2018-09-21T17:37:20.773Z,23.80
2018-09-21T17:39:51.196Z,23.70
2018-09-21T17:47:21.171Z,23.50
2018-09-21T17:49:51.659Z,23.40
2018-09-21T17:52:22.197Z,23.40
2018-09-21T17:57:22.228Z,23.20
2018-09-21T17:59:52.586Z,23.20
2018-09-21T18:02:23.015Z,23.30
2018-09-21T18:04:53.460Z,23.40
2018-09-21T18:07:23.784Z,23.50
2018-09-21T18:09:54.599Z,23.40
2018-09-21T18:12:25.008Z,23.40
2018-09-21T18:14:55.414Z,23.30
2018-09-21T18:22:26.280Z,23.00
2018-09-21T18:27:26.320Z,23.00
2018-09-21T18:32:26.334Z,22.90
2018-09-21T18:34:57.579Z,22.90
2018-09-21T18:37:27.939Z,22.80
2018-09-21T18:42:34.812Z,22.80
2018-09-21T18:47:37.197Z,23.00
2018-09-21T18:50:10.532Z,23.00
2018-09-21T18:52:40.757Z,22.90
2018-09-21T18:55:10.983Z,22.90
2018-09-21T18:57:41.164Z,22.90
2018-09-21T19:02:40.700Z,22.80
2018-09-21T19:07:42.003Z,22.70
2018-09-21T19:10:14.182Z,22.60
2018-09-21T19:12:50.287Z,22.60
2018-09-21T19:17:58.437Z,22.60
2018-09-21T19:20:28.624Z,22.50
2018-09-21T19:25:28.148Z,22.50
2018-09-21T19:27:58.357Z,22.60
2018-09-21T19:30:29.729Z,22.50
2018-09-21T19:32:59.971Z,22.50
2018-09-21T19:35:30.233Z,22.60
2018-09-21T19:38:00.384Z,22.60
2018-09-21T19:40:31.072Z,22.70
2018-09-21T19:43:01.533Z,22.90
2018-09-21T19:45:31.957Z,23.00
2018-09-21T19:48:03.184Z,22.80
2018-09-21T19:50:33.616Z,22.60
2018-09-21T19:53:04.241Z,22.40
2018-09-21T19:55:35.035Z,22.20
2018-09-21T19:58:05.461Z,22.00
2018-09-21T20:00:35.967Z,21.50
2018-09-21T20:03:06.445Z,21.00
2018-09-21T20:05:36.842Z,20.60
2018-09-21T20:08:07.547Z,20.30
2018-09-21T20:13:07.608Z,19.90
2018-09-21T20:15:37.886Z,19.60
2018-09-21T20:18:08.323Z,19.40
2018-09-21T20:20:38.803Z,19.00
2018-09-21T20:23:09.288Z,18.20
2018-09-21T20:28:09.449Z,16.70
2018-09-21T20:30:44.817Z,16.20
2018-09-21T20:33:20.337Z,15.90
2018-09-21T20:35:50.953Z,15.70
2018-09-21T20:38:21.391Z,15.50
2018-09-21T20:40:51.783Z,15.30
2018-09-21T20:45:51.655Z,15.00
2018-09-21T20:48:22.486Z,14.90
2018-09-21T20:50:53.220Z,14.80
2018-09-21T20:53:24.161Z,14.70
2018-09-21T20:55:54.607Z,14.60
2018-09-21T20:58:25.072Z,14.60
2018-09-21T21:00:55.493Z,14.50
2018-09-21T21:03:25.967Z,14.40
2018-09-21T21:05:56.324Z,14.30
2018-09-21T21:08:26.913Z,14.10
2018-09-21T21:10:57.348Z,13.90
2018-09-21T21:13:27.764Z,13.80
2018-09-21T21:15:58.247Z,13.60
2018-09-21T21:18:28.732Z,13.50
2018-09-21T21:20:59.307Z,13.40
2018-09-21T21:23:29.750Z,13.40
2018-09-21T21:26:00.174Z,13.30
2018-09-21T21:28:30.849Z,13.10
2018-09-21T21:31:01.415Z,13.00
2018-09-21T21:33:31.995Z,12.90
2018-09-21T21:36:02.275Z,12.80
2018-09-21T21:38:32.941Z,12.60
2018-09-21T21:41:03.357Z,12.60
2018-09-21T21:46:03.426Z,12.50
2018-09-21T21:48:33.783Z,12.40
2018-09-21T21:51:04.384Z,12.30
2018-09-21T21:53:34.771Z,12.30
2018-09-21T21:58:34.784Z,12.20
2018-09-21T22:01:19.447Z,12.20
2018-09-21T22:04:07.086Z,12.20
2018-09-21T22:06:53.484Z,12.20
2018-09-21T22:12:09.045Z,12.20
2018-09-21T22:14:39.647Z,12.20
2018-09-21T22:17:24.882Z,12.30
2018-09-21T22:20:08.022Z,12.30
2018-09-21T22:25:20.849Z,12.20
2018-09-21T22:28:04.734Z,12.30
2018-09-21T22:30:35.140Z,12.20
2018-09-21T22:33:05.428Z,12.20
2018-09-21T22:35:35.820Z,12.20
2018-09-21T22:38:06.585Z,12.10
2018-09-21T22:40:36.902Z,12.10
2018-09-21T22:43:07.591Z,12.10
2018-09-21T22:45:38.286Z,12.00
2018-09-21T22:48:08.749Z,12.00
2018-09-21T22:50:38.986Z,12.00
2018-09-21T22:53:09.355Z,12.00
2018-09-21T22:55:39.807Z,12.00
2018-09-21T22:58:10.206Z,11.90
2018-09-21T23:00:40.984Z,11.90
2018-09-21T23:03:11.465Z,11.90
2018-09-21T23:05:41.803Z,11.90
2018-09-21T23:13:11.634Z,11.90
2018-09-21T23:15:42.192Z,12.00
2018-09-21T23:20:42.218Z,12.00
2018-09-21T23:23:12.504Z,12.00
2018-09-21T23:25:42.914Z,12.10
2018-09-21T23:28:13.112Z,12.10
2018-09-21T23:30:43.881Z,12.00
2018-09-21T23:33:14.207Z,12.00
2018-09-21T23:35:44.685Z,12.10
2018-09-21T23:38:15.023Z,12.10
2018-09-21T23:40:45.393Z,12.10
2018-09-21T23:43:15.773Z,12.20
2018-09-21T23:45:46.206Z,12.10
2018-09-21T23:48:16.627Z,12.10
2018-09-21T23:50:46.889Z,12.10
2018-09-21T23:53:17.409Z,12.10
2018-09-21T23:55:47.784Z,12.10
